Nearby METAR Reports

 

KICL - Clarinda, Iowa, USA
Distance from station: N 49mi, 79km
Updated: Tue, 09-Aug-2022 8:15am CDT
Clear
Clear
 Wind from calm
Wind: Calm
Temperature: 63°F , 17°C
Dew Point: 63°F , 17°C
Humidity: 100%
Barometer: 30.15 inHg , 1021 hPa
Clouds: Clear
Visibility: 10 miles , 16 km
2022/08/09 13:15 KICL 091315Z AUTO 00000KT 10SM CLR 17/17 A3015 RMK AO2
KDSM - Des Moines, Iowa, USA
Distance from station: NNE 122mi, 196km
Updated: Tue, 09-Aug-2022 7:54am CDT
Few Clouds
Few Clouds
 Wind from NE
Wind: NE 3 mph , 6 km/h
Temperature: 66°F , 19°C
Dew Point: 61°F , 16°C
Humidity: 83%
Barometer: 30.14 inHg , 1020.7 hPa
Clouds: Few Clouds
Visibility: 10 miles , 16 km
Cloud details: Few Clouds 25000 ft
2022/08/09 12:54 KDSM 091254Z 04003KT 10SM FEW250 19/16 A3014 RMK AO2 SLP200 T01940161
KFNB - Falls City, Nebraska, USA
Distance from station: W 50mi, 80km
Updated: Tue, 09-Aug-2022 7:53am CDT
Clear
Clear
 Wind from NNE
Wind: NNE 3 mph , 6 km/h
Temperature: 64°F , 18°C
Dew Point: 61°F , 16°C
Humidity: 88%
Barometer: 30.12 inHg , 1020 hPa
Clouds: Clear
Visibility: 10 miles , 16 km
2022/08/09 12:53 KFNB 091253Z AUTO 03003KT 10SM CLR 18/16 A3012 RMK AO2 SLP192 T01830161
 
KMCI - Kansas City, Missouri, USA
Distance from station: S 65mi, 104km
Updated: Tue, 09-Aug-2022 7:53am CDT
Partly cloudy
Partly cloudy
 Wind from E
Wind: E 7 mph , 11 km/h
Temperature: 70°F , 21°C
Dew Point: 63°F , 17°C
Humidity: 78%
Barometer: 30.11 inHg , 1019.6 hPa
Clouds: Partly cloudy
Visibility: 10 miles , 16 km
Cloud details: Few Clouds 7500 ft
Partly cloudy 25000 ft
2022/08/09 12:53 KMCI 091253Z 08006KT 10SM FEW075 SCT250 21/17 A3011 RMK AO2 SLP187 TCU DSNT SE T02060167
KOMA - Omaha, Nebraska, USA
Distance from station: NNW 105mi, 169km
Updated: Tue, 09-Aug-2022 7:52am CDT
Clear
Clear
 Wind from calm
Wind: Calm
Temperature: 63°F , 17°C
Dew Point: 61°F , 16°C
Humidity: 94%
Barometer: 30.14 inHg , 1020.7 hPa
Clouds: Clear
Visibility: 10 miles , 16 km
2022/08/09 12:52 KOMA 091252Z 00000KT 10SM CLR 17/16 A3014 RMK AO2 SLP198 T01670156
KRDK - Red Oak, Iowa, USA
Distance from station: N 70mi, 112km
Updated: Tue, 09-Aug-2022 8:15am CDT
Clear
Clear
 Wind from calm
Wind: Calm
Temperature: 63°F , 17°C
Dew Point: 61°F , 16°C
Humidity: 94%
Barometer: 30.14 inHg , 1020.7 hPa
Clouds: Clear
Visibility: 10 miles , 16 km
2022/08/09 13:15 KRDK 091315Z AUTO 00000KT 10SM CLR 17/16 A3014 RMK AO2
 
KSTJ - Saint Joseph, Missouri, USA
Distance from station: SW 23mi, 37km
Updated: Tue, 09-Aug-2022 7:53am CDT
Clear
Clear
 Wind from E
Wind: E 3 mph , 6 km/h
Temperature: 66°F , 19°C
Dew Point: 63°F , 17°C
Humidity: 88%
Barometer: 30.12 inHg , 1020 hPa
Clouds: Clear
Visibility: 10 miles , 16 km
2022/08/09 12:53 KSTJ 091253Z 08003KT 10SM CLR 19/17 A3012 RMK AO2 SLP193 T01890172
KTOP - Topeka, Kansas, USA
Distance from station: SW 85mi, 137km
Updated: Tue, 09-Aug-2022 7:53am CDT
Clear
Clear
 Wind from calm
Wind: Calm
Temperature: 66°F , 19°C
Dew Point: 64°F , 18°C
Humidity: 94%
Barometer: 30.10 inHg , 1019.3 hPa
Clouds: Clear
Visibility: 10 miles , 16 km
2022/08/09 12:53 KTOP 091253Z 00000KT 10SM CLR 19/18 A3010 RMK AO2 SLP186 T01940178
KICT - Wichita, Kansas, USA
Distance from station: SW 215mi, 346km
Updated: Tue, 09-Aug-2022 7:53am CDT
Overcast
Overcast
 Wind from ENE
Wind: ENE 7 mph , 11 km/h
Temperature: 72°F , 22°C
Dew Point: 66°F , 19°C
Humidity: 83%
Barometer: 30.09 inHg , 1019 hPa
Clouds: Overcast
Visibility: 10 miles , 16 km
Cloud details: Overcast 1000 ft
2022/08/09 12:53 KICT 091253Z 06006KT 10SM OVC010 22/19 A3009 RMK AO2 SLP173 T02220194